sensor_id;sensor_type;location;lat;lon;timestamp;pressure;altitude;pressure_sealevel;temperature
35582;BMP180;21687;48.900;9.188;2023-04-08T00:00:52;98700.00;;;7.00
35582;BMP180;21687;48.900;9.188;2023-04-08T00:03:20;98694.00;;;7.00
35582;BMP180;21687;48.900;9.188;2023-04-08T00:05:47;98700.00;;;7.00
35582;BMP180;21687;48.900;9.188;2023-04-08T00:08:13;98699.00;;;7.10
35582;BMP180;21687;48.900;9.188;2023-04-08T00:10:39;98690.00;;;7.00
35582;BMP180;21687;48.900;9.188;2023-04-08T00:13:06;98697.00;;;7.00
35582;BMP180;21687;48.900;9.188;2023-04-08T00:15:32;98695.00;;;7.00
35582;BMP180;21687;48.900;9.188;2023-04-08T00:17:58;98698.00;;;7.00
35582;BMP180;21687;48.900;9.188;2023-04-08T00:20:24;98698.00;;;6.90
35582;BMP180;21687;48.900;9.188;2023-04-08T00:22:51;98685.00;;;7.00
35582;BMP180;21687;48.900;9.188;2023-04-08T00:25:17;98692.00;;;6.90
35582;BMP180;21687;48.900;9.188;2023-04-08T00:27:43;98698.00;;;6.90
35582;BMP180;21687;48.900;9.188;2023-04-08T00:30:10;98702.00;;;6.90
35582;BMP180;21687;48.900;9.188;2023-04-08T00:32:37;98710.00;;;6.90
35582;BMP180;21687;48.900;9.188;2023-04-08T00:35:03;98712.00;;;6.90
35582;BMP180;21687;48.900;9.188;2023-04-08T00:37:30;98703.00;;;6.90
35582;BMP180;21687;48.900;9.188;2023-04-08T00:39:56;98706.00;;;6.90
35582;BMP180;21687;48.900;9.188;2023-04-08T00:42:23;98713.00;;;6.80
35582;BMP180;21687;48.900;9.188;2023-04-08T00:44:49;98706.00;;;6.80
35582;BMP180;21687;48.900;9.188;2023-04-08T00:47:15;98708.00;;;6.80
35582;BMP180;21687;48.900;9.188;2023-04-08T00:49:42;98711.00;;;6.80
35582;BMP180;21687;48.900;9.188;2023-04-08T00:52:09;98715.00;;;6.80
35582;BMP180;21687;48.900;9.188;2023-04-08T00:54:36;98722.00;;;6.80
35582;BMP180;21687;48.900;9.188;2023-04-08T00:57:03;98715.00;;;6.80
35582;BMP180;21687;48.900;9.188;2023-04-08T00:59:31;98719.00;;;6.90
35582;BMP180;21687;48.900;9.188;2023-04-08T01:04:43;98718.00;;;6.90
35582;BMP180;21687;48.900;9.188;2023-04-08T01:07:17;98718.00;;;6.80
35582;BMP180;21687;48.900;9.188;2023-04-08T01:09:49;98715.00;;;6.80
35582;BMP180;21687;48.900;9.188;2023-04-08T01:12:29;98718.00;;;6.80
35582;BMP180;21687;48.900;9.188;2023-04-08T01:15:05;98719.00;;;6.80
35582;BMP180;21687;48.900;9.188;2023-04-08T01:17:32;98709.00;;;6.80
35582;BMP180;21687;48.900;9.188;2023-04-08T01:20:01;98706.00;;;6.70
35582;BMP180;21687;48.900;9.188;2023-04-08T01:25:18;98711.00;;;6.70
35582;BMP180;21687;48.900;9.188;2023-04-08T01:27:45;98720.00;;;6.70
35582;BMP180;21687;48.900;9.188;2023-04-08T01:30:14;98712.00;;;6.70
35582;BMP180;21687;48.900;9.188;2023-04-08T01:32:43;98708.00;;;6.70
35582;BMP180;21687;48.900;9.188;2023-04-08T01:35:11;98708.00;;;6.60
35582;BMP180;21687;48.900;9.188;2023-04-08T01:37:39;98700.00;;;6.60
35582;BMP180;21687;48.900;9.188;2023-04-08T01:40:07;98705.00;;;6.60
35582;BMP180;21687;48.900;9.188;2023-04-08T01:42:36;98699.00;;;6.60
35582;BMP180;21687;48.900;9.188;2023-04-08T01:45:03;98710.00;;;6.60
35582;BMP180;21687;48.900;9.188;2023-04-08T01:47:31;98677.00;;;6.60
35582;BMP180;21687;48.900;9.188;2023-04-08T01:49:59;98703.00;;;6.60
35582;BMP180;21687;48.900;9.188;2023-04-08T01:52:27;98703.00;;;6.60
35582;BMP180;21687;48.900;9.188;2023-04-08T01:54:54;98709.00;;;6.60
35582;BMP180;21687;48.900;9.188;2023-04-08T01:57:26;98706.00;;;6.60
35582;BMP180;21687;48.900;9.188;2023-04-08T01:59:58;98699.00;;;6.50
35582;BMP180;21687;48.900;9.188;2023-04-08T02:02:26;98702.00;;;6.50
35582;BMP180;21687;48.900;9.188;2023-04-08T02:04:53;98710.00;;;6.60
35582;BMP180;21687;48.900;9.188;2023-04-08T02:07:20;98714.00;;;6.60
35582;BMP180;21687;48.900;9.188;2023-04-08T02:09:46;98716.00;;;6.60
35582;BMP180;21687;48.900;9.188;2023-04-08T02:12:13;98704.00;;;6.60
35582;BMP180;21687;48.900;9.188;2023-04-08T02:14:39;98706.00;;;6.50
35582;BMP180;21687;48.900;9.188;2023-04-08T02:17:10;98701.00;;;6.50
35582;BMP180;21687;48.900;9.188;2023-04-08T02:22:30;98701.00;;;6.40
35582;BMP180;21687;48.900;9.188;2023-04-08T02:25:01;98710.00;;;6.50
35582;BMP180;21687;48.900;9.188;2023-04-08T02:27:30;98711.00;;;6.40
35582;BMP180;21687;48.900;9.188;2023-04-08T02:30:01;98705.00;;;6.40
35582;BMP180;21687;48.900;9.188;2023-04-08T02:32:29;98707.00;;;6.50
35582;BMP180;21687;48.900;9.188;2023-04-08T02:35:00;98709.00;;;6.50
35582;BMP180;21687;48.900;9.188;2023-04-08T02:37:28;98716.00;;;6.50
35582;BMP180;21687;48.900;9.188;2023-04-08T02:39:54;98706.00;;;6.40
35582;BMP180;21687;48.900;9.188;2023-04-08T02:42:21;98713.00;;;6.40
35582;BMP180;21687;48.900;9.188;2023-04-08T02:44:47;98709.00;;;6.40
35582;BMP180;21687;48.900;9.188;2023-04-08T02:47:14;98702.00;;;6.40
35582;BMP180;21687;48.900;9.188;2023-04-08T02:49:40;98702.00;;;6.40
35582;BMP180;21687;48.900;9.188;2023-04-08T02:52:06;98694.00;;;6.30
35582;BMP180;21687;48.900;9.188;2023-04-08T02:54:32;98709.00;;;6.30
35582;BMP180;21687;48.900;9.188;2023-04-08T02:56:59;98703.00;;;6.30
35582;BMP180;21687;48.900;9.188;2023-04-08T02:59:25;98701.00;;;6.20
35582;BMP180;21687;48.900;9.188;2023-04-08T03:01:51;98708.00;;;6.20
35582;BMP180;21687;48.900;9.188;2023-04-08T03:04:17;98713.00;;;6.20
35582;BMP180;21687;48.900;9.188;2023-04-08T03:06:44;98710.00;;;6.20
35582;BMP180;21687;48.900;9.188;2023-04-08T03:09:10;98707.00;;;6.20
35582;BMP180;21687;48.900;9.188;2023-04-08T03:11:36;98706.00;;;6.20
35582;BMP180;21687;48.900;9.188;2023-04-08T03:14:02;98704.00;;;6.20
35582;BMP180;21687;48.900;9.188;2023-04-08T03:16:29;98705.00;;;6.20
35582;BMP180;21687;48.900;9.188;2023-04-08T03:18:55;98712.00;;;6.20
35582;BMP180;21687;48.900;9.188;2023-04-08T03:21:21;98715.00;;;6.30
35582;BMP180;21687;48.900;9.188;2023-04-08T03:23:47;98710.00;;;6.30
35582;BMP180;21687;48.900;9.188;2023-04-08T03:26:13;98711.00;;;6.30
35582;BMP180;21687;48.900;9.188;2023-04-08T03:28:40;98713.00;;;6.30
35582;BMP180;21687;48.900;9.188;2023-04-08T03:31:06;98712.00;;;6.30
35582;BMP180;21687;48.900;9.188;2023-04-08T03:33:32;98717.00;;;6.20
35582;BMP180;21687;48.900;9.188;2023-04-08T03:35:59;98719.00;;;6.20
35582;BMP180;21687;48.900;9.188;2023-04-08T03:38:26;98717.00;;;6.20
35582;BMP180;21687;48.900;9.188;2023-04-08T03:40:52;98711.00;;;6.20
35582;BMP180;21687;48.900;9.188;2023-04-08T03:43:18;98715.00;;;6.20
35582;BMP180;21687;48.900;9.188;2023-04-08T03:45:46;98714.00;;;6.20
35582;BMP180;21687;48.900;9.188;2023-04-08T03:48:13;98718.00;;;6.20
35582;BMP180;21687;48.900;9.188;2023-04-08T03:50:39;98703.00;;;6.20
35582;BMP180;21687;48.900;9.188;2023-04-08T03:53:05;98712.00;;;6.10
35582;BMP180;21687;48.900;9.188;2023-04-08T03:55:31;98712.00;;;6.10
35582;BMP180;21687;48.900;9.188;2023-04-08T03:57:58;98715.00;;;6.00
35582;BMP180;21687;48.900;9.188;2023-04-08T04:00:24;98705.00;;;5.90
35582;BMP180;21687;48.900;9.188;2023-04-08T04:02:50;98713.00;;;5.70
35582;BMP180;21687;48.900;9.188;2023-04-08T04:05:16;98711.00;;;5.60
35582;BMP180;21687;48.900;9.188;2023-04-08T04:07:42;98708.00;;;5.50
35582;BMP180;21687;48.900;9.188;2023-04-08T04:10:09;98701.00;;;5.50
35582;BMP180;21687;48.900;9.188;2023-04-08T04:12:36;98713.00;;;5.40
35582;BMP180;21687;48.900;9.188;2023-04-08T04:15:03;98705.00;;;5.30
35582;BMP180;21687;48.900;9.188;2023-04-08T04:17:29;98710.00;;;5.20
35582;BMP180;21687;48.900;9.188;2023-04-08T04:19:56;98709.00;;;5.10
35582;BMP180;21687;48.900;9.188;2023-04-08T04:22:22;98714.00;;;5.00
35582;BMP180;21687;48.900;9.188;2023-04-08T04:24:49;98710.00;;;4.90
35582;BMP180;21687;48.900;9.188;2023-04-08T04:27:15;98725.00;;;4.80
35582;BMP180;21687;48.900;9.188;2023-04-08T04:29:44;98726.00;;;4.70
35582;BMP180;21687;48.900;9.188;2023-04-08T04:32:10;98725.00;;;4.80
35582;BMP180;21687;48.900;9.188;2023-04-08T04:34:36;98720.00;;;4.80
35582;BMP180;21687;48.900;9.188;2023-04-08T04:37:03;98725.00;;;4.80
35582;BMP180;21687;48.900;9.188;2023-04-08T04:39:29;98728.00;;;4.70
35582;BMP180;21687;48.900;9.188;2023-04-08T04:41:55;98718.00;;;4.70
35582;BMP180;21687;48.900;9.188;2023-04-08T04:44:22;98728.00;;;4.70
35582;BMP180;21687;48.900;9.188;2023-04-08T04:46:49;98726.00;;;4.70
35582;BMP180;21687;48.900;9.188;2023-04-08T04:49:15;98733.00;;;4.70
35582;BMP180;21687;48.900;9.188;2023-04-08T04:51:41;98730.00;;;4.60
35582;BMP180;21687;48.900;9.188;2023-04-08T04:54:07;98734.00;;;4.60
35582;BMP180;21687;48.900;9.188;2023-04-08T04:56:34;98711.00;;;4.60
35582;BMP180;21687;48.900;9.188;2023-04-08T04:59:00;98736.00;;;4.50
35582;BMP180;21687;48.900;9.188;2023-04-08T05:01:26;98738.00;;;4.40
35582;BMP180;21687;48.900;9.188;2023-04-08T05:03:54;98734.00;;;4.30
35582;BMP180;21687;48.900;9.188;2023-04-08T05:06:21;98740.00;;;4.40
35582;BMP180;21687;48.900;9.188;2023-04-08T05:08:48;98738.00;;;4.30
35582;BMP180;21687;48.900;9.188;2023-04-08T05:11:14;98737.00;;;4.30
35582;BMP180;21687;48.900;9.188;2023-04-08T05:13:43;98749.00;;;4.30
35582;BMP180;21687;48.900;9.188;2023-04-08T05:16:10;98740.00;;;4.40
35582;BMP180;21687;48.900;9.188;2023-04-08T05:18:36;98760.00;;;4.50
35582;BMP180;21687;48.900;9.188;2023-04-08T05:21:02;98757.00;;;4.60
35582;BMP180;21687;48.900;9.188;2023-04-08T05:23:29;98761.00;;;4.70
35582;BMP180;21687;48.900;9.188;2023-04-08T05:25:55;98765.00;;;4.80
35582;BMP180;21687;48.900;9.188;2023-04-08T05:28:22;98772.00;;;4.90
35582;BMP180;21687;48.900;9.188;2023-04-08T05:30:49;98769.00;;;5.00
35582;BMP180;21687;48.900;9.188;2023-04-08T05:33:16;98768.00;;;5.10
35582;BMP180;21687;48.900;9.188;2023-04-08T05:35:43;98779.00;;;5.20
35582;BMP180;21687;48.900;9.188;2023-04-08T05:38:09;98768.00;;;5.30
35582;BMP180;21687;48.900;9.188;2023-04-08T05:40:36;98767.00;;;5.40
35582;BMP180;21687;48.900;9.188;2023-04-08T05:43:02;98770.00;;;5.50
35582;BMP180;21687;48.900;9.188;2023-04-08T05:45:29;98775.00;;;5.50
35582;BMP180;21687;48.900;9.188;2023-04-08T05:47:55;98764.00;;;5.60
35582;BMP180;21687;48.900;9.188;2023-04-08T05:50:22;98770.00;;;5.60
35582;BMP180;21687;48.900;9.188;2023-04-08T05:52:48;98773.00;;;5.60
35582;BMP180;21687;48.900;9.188;2023-04-08T05:55:14;98779.00;;;5.70
35582;BMP180;21687;48.900;9.188;2023-04-08T05:57:41;98781.00;;;5.80
35582;BMP180;21687;48.900;9.188;2023-04-08T06:00:08;98786.00;;;5.90
35582;BMP180;21687;48.900;9.188;2023-04-08T06:02:35;98784.00;;;6.00
35582;BMP180;21687;48.900;9.188;2023-04-08T06:05:02;98795.00;;;6.00
35582;BMP180;21687;48.900;9.188;2023-04-08T06:07:29;98782.00;;;6.00
35582;BMP180;21687;48.900;9.188;2023-04-08T06:09:55;98798.00;;;6.10
35582;BMP180;21687;48.900;9.188;2023-04-08T06:12:21;98805.00;;;6.10
35582;BMP180;21687;48.900;9.188;2023-04-08T06:14:52;98804.00;;;6.10
35582;BMP180;21687;48.900;9.188;2023-04-08T06:17:18;98805.00;;;6.20
35582;BMP180;21687;48.900;9.188;2023-04-08T06:19:44;98810.00;;;6.20
35582;BMP180;21687;48.900;9.188;2023-04-08T06:22:10;98783.00;;;6.20
35582;BMP180;21687;48.900;9.188;2023-04-08T06:24:37;98799.00;;;6.30
35582;BMP180;21687;48.900;9.188;2023-04-08T06:27:03;98806.00;;;6.40
35582;BMP180;21687;48.900;9.188;2023-04-08T06:29:29;98811.00;;;6.60
35582;BMP180;21687;48.900;9.188;2023-04-08T06:31:56;98809.00;;;6.60
35582;BMP180;21687;48.900;9.188;2023-04-08T06:34:22;98811.00;;;6.70
35582;BMP180;21687;48.900;9.188;2023-04-08T06:36:48;98810.00;;;6.70
35582;BMP180;21687;48.900;9.188;2023-04-08T06:39:15;98823.00;;;6.70
35582;BMP180;21687;48.900;9.188;2023-04-08T06:41:42;98808.00;;;6.80
35582;BMP180;21687;48.900;9.188;2023-04-08T06:44:08;98819.00;;;7.00
35582;BMP180;21687;48.900;9.188;2023-04-08T06:46:34;98808.00;;;7.00
35582;BMP180;21687;48.900;9.188;2023-04-08T06:49:00;98826.00;;;7.20
35582;BMP180;21687;48.900;9.188;2023-04-08T06:51:29;98823.00;;;7.20
35582;BMP180;21687;48.900;9.188;2023-04-08T06:53:56;98823.00;;;7.20
35582;BMP180;21687;48.900;9.188;2023-04-08T06:56:22;98827.00;;;7.50
35582;BMP180;21687;48.900;9.188;2023-04-08T06:58:51;98829.00;;;7.60
35582;BMP180;21687;48.900;9.188;2023-04-08T07:01:18;98835.00;;;7.80
35582;BMP180;21687;48.900;9.188;2023-04-08T07:03:44;98840.00;;;8.00
35582;BMP180;21687;48.900;9.188;2023-04-08T07:06:10;98843.00;;;8.10
35582;BMP180;21687;48.900;9.188;2023-04-08T07:08:36;98847.00;;;8.10
35582;BMP180;21687;48.900;9.188;2023-04-08T07:11:03;98843.00;;;7.90
35582;BMP180;21687;48.900;9.188;2023-04-08T07:13:30;98839.00;;;7.90
35582;BMP180;21687;48.900;9.188;2023-04-08T07:15:56;98845.00;;;8.20
35582;BMP180;21687;48.900;9.188;2023-04-08T07:18:23;98840.00;;;8.20
35582;BMP180;21687;48.900;9.188;2023-04-08T07:20:52;98825.00;;;8.40
35582;BMP180;21687;48.900;9.188;2023-04-08T07:23:19;98838.00;;;8.60
35582;BMP180;21687;48.900;9.188;2023-04-08T07:25:46;98843.00;;;8.50
35582;BMP180;21687;48.900;9.188;2023-04-08T07:28:13;98840.00;;;8.40
35582;BMP180;21687;48.900;9.188;2023-04-08T07:30:39;98842.00;;;8.40
35582;BMP180;21687;48.900;9.188;2023-04-08T07:33:05;98847.00;;;8.60
35582;BMP180;21687;48.900;9.188;2023-04-08T07:35:33;98839.00;;;8.80
35582;BMP180;21687;48.900;9.188;2023-04-08T07:37:59;98844.00;;;8.70
35582;BMP180;21687;48.900;9.188;2023-04-08T07:40:25;98856.00;;;8.70
35582;BMP180;21687;48.900;9.188;2023-04-08T07:42:52;98851.00;;;8.70
35582;BMP180;21687;48.900;9.188;2023-04-08T07:45:18;98856.00;;;8.60
35582;BMP180;21687;48.900;9.188;2023-04-08T07:47:45;98861.00;;;8.60
35582;BMP180;21687;48.900;9.188;2023-04-08T07:50:12;98859.00;;;8.50
35582;BMP180;21687;48.900;9.188;2023-04-08T07:52:38;98867.00;;;8.00
35582;BMP180;21687;48.900;9.188;2023-04-08T07:55:05;98860.00;;;8.20
35582;BMP180;21687;48.900;9.188;2023-04-08T07:57:31;98873.00;;;8.30
35582;BMP180;21687;48.900;9.188;2023-04-08T07:59:58;98870.00;;;8.40
35582;BMP180;21687;48.900;9.188;2023-04-08T08:02:24;98872.00;;;8.60
35582;BMP180;21687;48.900;9.188;2023-04-08T08:04:50;98872.00;;;8.50
35582;BMP180;21687;48.900;9.188;2023-04-08T08:07:17;98881.00;;;8.60
35582;BMP180;21687;48.900;9.188;2023-04-08T08:09:43;98876.00;;;8.60
35582;BMP180;21687;48.900;9.188;2023-04-08T08:12:09;98881.00;;;8.90
35582;BMP180;21687;48.900;9.188;2023-04-08T08:14:37;98877.00;;;8.70
35582;BMP180;21687;48.900;9.188;2023-04-08T08:17:03;98869.00;;;8.90
35582;BMP180;21687;48.900;9.188;2023-04-08T08:19:29;98883.00;;;8.60
35582;BMP180;21687;48.900;9.188;2023-04-08T08:21:56;98880.00;;;8.60
35582;BMP180;21687;48.900;9.188;2023-04-08T08:24:22;98881.00;;;8.90
35582;BMP180;21687;48.900;9.188;2023-04-08T08:26:48;98872.00;;;9.20
35582;BMP180;21687;48.900;9.188;2023-04-08T08:29:15;98877.00;;;9.40
35582;BMP180;21687;48.900;9.188;2023-04-08T08:31:41;98879.00;;;9.60
35582;BMP180;21687;48.900;9.188;2023-04-08T08:34:07;98872.00;;;9.40
35582;BMP180;21687;48.900;9.188;2023-04-08T08:36:33;98881.00;;;9.90
35582;BMP180;21687;48.900;9.188;2023-04-08T08:39:00;98879.00;;;10.20
35582;BMP180;21687;48.900;9.188;2023-04-08T08:41:31;98886.00;;;9.70
35582;BMP180;21687;48.900;9.188;2023-04-08T08:43:59;98889.00;;;10.00
35582;BMP180;21687;48.900;9.188;2023-04-08T08:46:26;98893.00;;;9.80
35582;BMP180;21687;48.900;9.188;2023-04-08T08:48:52;98889.00;;;10.00
35582;BMP180;21687;48.900;9.188;2023-04-08T08:51:18;98903.00;;;10.10
35582;BMP180;21687;48.900;9.188;2023-04-08T08:53:45;98896.00;;;9.80
35582;BMP180;21687;48.900;9.188;2023-04-08T08:56:11;98901.00;;;9.40
35582;BMP180;21687;48.900;9.188;2023-04-08T08:58:38;98906.00;;;9.20
35582;BMP180;21687;48.900;9.188;2023-04-08T09:01:39;98897.00;;;9.50
35582;BMP180;21687;48.900;9.188;2023-04-08T09:04:11;98909.00;;;9.60
35582;BMP180;21687;48.900;9.188;2023-04-08T09:06:39;98871.00;;;9.60
35582;BMP180;21687;48.900;9.188;2023-04-08T09:09:05;98900.00;;;9.90
35582;BMP180;21687;48.900;9.188;2023-04-08T09:11:36;98903.00;;;10.10
35582;BMP180;21687;48.900;9.188;2023-04-08T09:14:03;98908.00;;;10.20
35582;BMP180;21687;48.900;9.188;2023-04-08T09:16:30;98907.00;;;10.20
35582;BMP180;21687;48.900;9.188;2023-04-08T09:19:07;98907.00;;;10.50
35582;BMP180;21687;48.900;9.188;2023-04-08T09:21:35;98913.00;;;10.20
35582;BMP180;21687;48.900;9.188;2023-04-08T09:24:02;98905.00;;;10.40
35582;BMP180;21687;48.900;9.188;2023-04-08T09:26:28;98916.00;;;10.40
35582;BMP180;21687;48.900;9.188;2023-04-08T09:29:05;98913.00;;;10.40
35582;BMP180;21687;48.900;9.188;2023-04-08T09:31:37;98911.00;;;10.30
35582;BMP180;21687;48.900;9.188;2023-04-08T09:34:16;98914.00;;;10.30
35582;BMP180;21687;48.900;9.188;2023-04-08T09:36:44;98914.00;;;10.30
35582;BMP180;21687;48.900;9.188;2023-04-08T09:39:10;98913.00;;;10.30
35582;BMP180;21687;48.900;9.188;2023-04-08T09:41:37;98915.00;;;10.20
35582;BMP180;21687;48.900;9.188;2023-04-08T09:44:06;98916.00;;;10.20
35582;BMP180;21687;48.900;9.188;2023-04-08T09:49:37;98909.00;;;10.80
35582;BMP180;21687;48.900;9.188;2023-04-08T09:52:12;98919.00;;;10.50
35582;BMP180;21687;48.900;9.188;2023-04-08T09:55:00;98917.00;;;10.40
35582;BMP180;21687;48.900;9.188;2023-04-08T09:57:40;98916.00;;;10.60
35582;BMP180;21687;48.900;9.188;2023-04-08T10:00:12;98910.00;;;10.80
35582;BMP180;21687;48.900;9.188;2023-04-08T10:05:27;98909.00;;;10.90
35582;BMP180;21687;48.900;9.188;2023-04-08T10:07:55;98910.00;;;11.10
35582;BMP180;21687;48.900;9.188;2023-04-08T10:10:23;98928.00;;;10.60
35582;BMP180;21687;48.900;9.188;2023-04-08T10:12:50;98921.00;;;10.60
35582;BMP180;21687;48.900;9.188;2023-04-08T10:15:27;98914.00;;;10.20
35582;BMP180;21687;48.900;9.188;2023-04-08T10:20:46;98921.00;;;10.50
35582;BMP180;21687;48.900;9.188;2023-04-08T10:23:13;98918.00;;;10.60
35582;BMP180;21687;48.900;9.188;2023-04-08T10:25:47;98914.00;;;10.20
35582;BMP180;21687;48.900;9.188;2023-04-08T10:33:20;98921.00;;;10.10
35582;BMP180;21687;48.900;9.188;2023-04-08T10:35:49;98914.00;;;9.80
35582;BMP180;21687;48.900;9.188;2023-04-08T10:38:17;98913.00;;;10.00
35582;BMP180;21687;48.900;9.188;2023-04-08T10:40:44;98924.00;;;9.80
35582;BMP180;21687;48.900;9.188;2023-04-08T10:43:12;98919.00;;;10.00
35582;BMP180;21687;48.900;9.188;2023-04-08T10:45:42;98921.00;;;10.00
35582;BMP180;21687;48.900;9.188;2023-04-08T10:48:22;98923.00;;;10.00
35582;BMP180;21687;48.900;9.188;2023-04-08T10:51:00;98921.00;;;9.90
35582;BMP180;21687;48.900;9.188;2023-04-08T10:53:28;98920.00;;;9.90
35582;BMP180;21687;48.900;9.188;2023-04-08T10:56:05;98920.00;;;10.10
35582;BMP180;21687;48.900;9.188;2023-04-08T10:58:32;98921.00;;;10.10
35582;BMP180;21687;48.900;9.188;2023-04-08T11:01:07;98922.00;;;10.00
35582;BMP180;21687;48.900;9.188;2023-04-08T11:03:34;98916.00;;;9.80
35582;BMP180;21687;48.900;9.188;2023-04-08T11:06:02;98928.00;;;9.90
35582;BMP180;21687;48.900;9.188;2023-04-08T11:08:29;98929.00;;;9.60
35582;BMP180;21687;48.900;9.188;2023-04-08T11:11:04;98917.00;;;9.60
35582;BMP180;21687;48.900;9.188;2023-04-08T11:13:34;98878.00;;;9.70
35582;BMP180;21687;48.900;9.188;2023-04-08T11:16:02;98917.00;;;9.80
35582;BMP180;21687;48.900;9.188;2023-04-08T11:18:30;98924.00;;;10.00
35582;BMP180;21687;48.900;9.188;2023-04-08T11:20:57;98919.00;;;9.90
35582;BMP180;21687;48.900;9.188;2023-04-08T11:23:27;98915.00;;;10.00
35582;BMP180;21687;48.900;9.188;2023-04-08T11:25:53;98914.00;;;10.10
35582;BMP180;21687;48.900;9.188;2023-04-08T11:28:20;98915.00;;;10.10
35582;BMP180;21687;48.900;9.188;2023-04-08T11:30:47;98913.00;;;10.00
35582;BMP180;21687;48.900;9.188;2023-04-08T11:33:14;98910.00;;;9.80
35582;BMP180;21687;48.900;9.188;2023-04-08T11:35:42;98918.00;;;9.70
35582;BMP180;21687;48.900;9.188;2023-04-08T11:38:09;98911.00;;;9.50
35582;BMP180;21687;48.900;9.188;2023-04-08T11:40:37;98910.00;;;9.50
35582;BMP180;21687;48.900;9.188;2023-04-08T11:43:10;98914.00;;;9.50
35582;BMP180;21687;48.900;9.188;2023-04-08T11:45:40;98913.00;;;9.70
35582;BMP180;21687;48.900;9.188;2023-04-08T11:48:14;98909.00;;;9.70
35582;BMP180;21687;48.900;9.188;2023-04-08T11:50:42;98905.00;;;9.90
35582;BMP180;21687;48.900;9.188;2023-04-08T11:53:25;98915.00;;;9.80
35582;BMP180;21687;48.900;9.188;2023-04-08T11:55:51;98910.00;;;9.90
35582;BMP180;21687;48.900;9.188;2023-04-08T11:58:17;98906.00;;;10.00
35582;BMP180;21687;48.900;9.188;2023-04-08T12:00:44;98911.00;;;9.90
35582;BMP180;21687;48.900;9.188;2023-04-08T12:03:11;98894.00;;;10.00
35582;BMP180;21687;48.900;9.188;2023-04-08T12:05:38;98911.00;;;9.90
35582;BMP180;21687;48.900;9.188;2023-04-08T12:08:04;98906.00;;;9.90
35582;BMP180;21687;48.900;9.188;2023-04-08T12:10:31;98911.00;;;10.10
35582;BMP180;21687;48.900;9.188;2023-04-08T12:12:57;98909.00;;;10.30
35582;BMP180;21687;48.900;9.188;2023-04-08T12:15:24;98916.00;;;9.90
35582;BMP180;21687;48.900;9.188;2023-04-08T12:17:50;98918.00;;;9.60
35582;BMP180;21687;48.900;9.188;2023-04-08T12:20:16;98919.00;;;9.80
35582;BMP180;21687;48.900;9.188;2023-04-08T12:22:43;98921.00;;;9.90
35582;BMP180;21687;48.900;9.188;2023-04-08T12:25:09;98918.00;;;9.80
35582;BMP180;21687;48.900;9.188;2023-04-08T12:27:36;98913.00;;;9.90
35582;BMP180;21687;48.900;9.188;2023-04-08T12:30:02;98924.00;;;9.90
35582;BMP180;21687;48.900;9.188;2023-04-08T12:32:29;98925.00;;;10.00
35582;BMP180;21687;48.900;9.188;2023-04-08T12:34:55;98925.00;;;10.10
35582;BMP180;21687;48.900;9.188;2023-04-08T12:37:21;98921.00;;;10.10
35582;BMP180;21687;48.900;9.188;2023-04-08T12:39:47;98915.00;;;10.30
35582;BMP180;21687;48.900;9.188;2023-04-08T12:42:14;98924.00;;;10.20
35582;BMP180;21687;48.900;9.188;2023-04-08T12:44:41;98926.00;;;10.30
35582;BMP180;21687;48.900;9.188;2023-04-08T12:47:07;98923.00;;;10.40
35582;BMP180;21687;48.900;9.188;2023-04-08T12:49:33;98919.00;;;10.40
35582;BMP180;21687;48.900;9.188;2023-04-08T12:52:00;98920.00;;;10.40
35582;BMP180;21687;48.900;9.188;2023-04-08T12:54:26;98923.00;;;10.40
35582;BMP180;21687;48.900;9.188;2023-04-08T12:56:52;98921.00;;;10.50
35582;BMP180;21687;48.900;9.188;2023-04-08T12:59:19;98926.00;;;10.30
35582;BMP180;21687;48.900;9.188;2023-04-08T13:01:45;98915.00;;;10.30
35582;BMP180;21687;48.900;9.188;2023-04-08T13:04:12;98916.00;;;10.40
35582;BMP180;21687;48.900;9.188;2023-04-08T13:06:38;98916.00;;;10.70
35582;BMP180;21687;48.900;9.188;2023-04-08T13:09:04;98921.00;;;10.60
35582;BMP180;21687;48.900;9.188;2023-04-08T13:11:30;98921.00;;;10.70
35582;BMP180;21687;48.900;9.188;2023-04-08T13:13:59;98914.00;;;11.10
35582;BMP180;21687;48.900;9.188;2023-04-08T13:16:25;98907.00;;;11.20
35582;BMP180;21687;48.900;9.188;2023-04-08T13:18:52;98913.00;;;11.20
35582;BMP180;21687;48.900;9.188;2023-04-08T13:21:18;98915.00;;;11.10
35582;BMP180;21687;48.900;9.188;2023-04-08T13:23:44;98920.00;;;11.20
35582;BMP180;21687;48.900;9.188;2023-04-08T13:26:12;98912.00;;;10.70
35582;BMP180;21687;48.900;9.188;2023-04-08T13:28:38;98914.00;;;10.80
35582;BMP180;21687;48.900;9.188;2023-04-08T13:31:04;98916.00;;;10.90
35582;BMP180;21687;48.900;9.188;2023-04-08T13:33:30;98915.00;;;10.40
35582;BMP180;21687;48.900;9.188;2023-04-08T13:35:57;98918.00;;;10.60
35582;BMP180;21687;48.900;9.188;2023-04-08T13:38:23;98922.00;;;10.50
35582;BMP180;21687;48.900;9.188;2023-04-08T13:40:49;98924.00;;;10.40
35582;BMP180;21687;48.900;9.188;2023-04-08T13:43:15;98911.00;;;10.40
35582;BMP180;21687;48.900;9.188;2023-04-08T13:45:41;98911.00;;;10.50
35582;BMP180;21687;48.900;9.188;2023-04-08T13:48:08;98907.00;;;10.50
35582;BMP180;21687;48.900;9.188;2023-04-08T13:50:34;98914.00;;;10.80
35582;BMP180;21687;48.900;9.188;2023-04-08T13:53:01;98914.00;;;11.00
35582;BMP180;21687;48.900;9.188;2023-04-08T13:55:27;98911.00;;;11.10
35582;BMP180;21687;48.900;9.188;2023-04-08T13:57:53;98909.00;;;11.10
35582;BMP180;21687;48.900;9.188;2023-04-08T14:00:21;98918.00;;;10.80
35582;BMP180;21687;48.900;9.188;2023-04-08T14:02:47;98920.00;;;10.80
35582;BMP180;21687;48.900;9.188;2023-04-08T14:05:15;98911.00;;;10.90
35582;BMP180;21687;48.900;9.188;2023-04-08T14:07:41;98912.00;;;11.00
35582;BMP180;21687;48.900;9.188;2023-04-08T14:10:08;98904.00;;;11.20
35582;BMP180;21687;48.900;9.188;2023-04-08T14:12:34;98907.00;;;11.40
35582;BMP180;21687;48.900;9.188;2023-04-08T14:15:01;98913.00;;;11.70
35582;BMP180;21687;48.900;9.188;2023-04-08T14:17:27;98919.00;;;11.50
35582;BMP180;21687;48.900;9.188;2023-04-08T14:19:54;98918.00;;;11.30
35582;BMP180;21687;48.900;9.188;2023-04-08T14:22:20;98916.00;;;11.20
35582;BMP180;21687;48.900;9.188;2023-04-08T14:24:46;98918.00;;;11.20
35582;BMP180;21687;48.900;9.188;2023-04-08T14:27:12;98923.00;;;11.00
35582;BMP180;21687;48.900;9.188;2023-04-08T14:29:38;98915.00;;;10.70
35582;BMP180;21687;48.900;9.188;2023-04-08T14:32:05;98922.00;;;10.60
35582;BMP180;21687;48.900;9.188;2023-04-08T14:34:31;98918.00;;;10.70
35582;BMP180;21687;48.900;9.188;2023-04-08T14:36:57;98930.00;;;10.60
35582;BMP180;21687;48.900;9.188;2023-04-08T14:39:24;98932.00;;;10.60
35582;BMP180;21687;48.900;9.188;2023-04-08T14:41:50;98921.00;;;10.60